Time,TemperatureF,DewpointF,PressureIn,WindDirection,WindDirectionDegrees,WindSpeedMPH,WindSpeedGustMPH,Humidity,HourlyPrecipIn,Conditions,Clouds,dailyrainin,SoftwareType,DateUTC
2013-03-03 00:00:00,31.1,4.7,29.18,NNE,26,0.0,0.0,32,0.00,,,0.00,VWS V14.01,2013-03-03 05:00:00,
2013-03-03 00:05:00,31.1,4.7,29.18,NE,52,0.0,2.2,32,0.00,,,0.00,VWS V14.01,2013-03-03 05:05:00,
2013-03-03 00:10:00,31.1,4.7,29.18,NW,316,4.0,4.0,32,0.00,,,0.00,VWS V14.01,2013-03-03 05:10:00,
2013-03-03 00:15:00,31.1,4.7,29.18,North,353,2.7,5.4,32,0.00,,,0.00,VWS V14.01,2013-03-03 05:15:00,
2013-03-03 00:20:00,31.1,4.7,29.18,NE,35,3.1,3.1,32,0.00,,,0.00,VWS V14.01,2013-03-03 05:20:00,
2013-03-03 00:25:00,30.0,3.8,29.18,ENE,72,2.7,3.6,32,0.00,,,0.00,VWS V14.01,2013-03-03 05:25:00,
2013-03-03 00:30:00,30.0,3.8,29.18,NE,46,0.0,4.0,32,0.00,,,0.00,VWS V14.01,2013-03-03 05:30:00,
2013-03-03 00:35:00,30.0,3.8,29.15,NNW,328,5.4,5.4,32,0.00,,,0.00,VWS V14.01,2013-03-03 05:35:00,
2013-03-03 00:40:00,30.0,3.8,29.15,WSW,252,3.1,3.1,32,0.00,,,0.00,VWS V14.01,2013-03-03 05:40:00,
2013-03-03 00:45:00,30.0,3.8,29.15,West,281,0.0,6.3,32,0.00,,,0.00,VWS V14.01,2013-03-03 05:45:00,
2013-03-03 00:50:00,30.0,4.4,29.15,NNE,30,3.1,3.1,33,0.00,,,0.00,VWS V14.01,2013-03-03 05:50:00,
2013-03-03 00:55:00,30.0,4.4,29.15,NNE,33,0.0,3.6,33,0.00,,,0.00,VWS V14.01,2013-03-03 05:55:00,
2013-03-03 01:00:00,29.8,4.2,29.15,North,357,2.2,3.6,33,0.00,,,0.00,VWS V14.01,2013-03-03 06:00:00,
2013-03-03 01:06:00,29.8,4.2,29.15,NNE,19,4.0,7.2,33,0.00,,,0.00,VWS V14.01,2013-03-03 06:06:00,
2013-03-03 01:11:00,29.8,4.2,29.15,North,11,4.0,4.0,33,0.00,,,0.00,VWS V14.01,2013-03-03 06:11:00,
2013-03-03 01:16:00,29.8,4.2,29.15,NNE,29,2.2,3.1,33,0.00,,,0.00,VWS V14.01,2013-03-03 06:16:00,
2013-03-03 01:21:00,29.8,4.2,29.15,North,4,0.0,3.1,33,0.00,,,0.00,VWS V14.01,2013-03-03 06:21:00,
2013-03-03 01:26:00,29.8,4.2,29.15,NNE,16,2.7,2.7,33,0.00,,,0.00,VWS V14.01,2013-03-03 06:26:00,
2013-03-03 01:31:00,29.5,3.9,29.15,NE,50,0.0,2.7,33,0.00,,,0.00,VWS V14.01,2013-03-03 06:31:00,
2013-03-03 01:36:00,29.5,3.9,29.15,North,353,0.0,0.0,33,0.00,,,0.00,VWS V14.01,2013-03-03 06:36:00,
2013-03-03 01:41:00,29.5,3.9,29.15,ENE,75,3.1,3.1,33,0.00,,,0.00,VWS V14.01,2013-03-03 06:41:00,
2013-03-03 01:46:00,29.5,3.9,29.15,ENE,57,2.2,3.1,33,0.00,,,0.00,VWS V14.01,2013-03-03 06:46:00,
2013-03-03 01:51:00,29.5,3.9,29.18,North,9,0.0,0.0,33,0.00,,,0.00,VWS V14.01,2013-03-03 06:51:00,
2013-03-03 01:56:00,29.5,3.9,29.18,North,0,0.0,0.0,33,0.00,,,0.00,VWS V14.01,2013-03-03 06:56:00,
2013-03-03 02:01:00,29.1,3.6,29.18,NNE,20,0.0,0.0,33,0.00,,,0.00,VWS V14.01,2013-03-03 07:01:00,
2013-03-03 02:06:00,28.9,4.1,29.15,North,4,0.0,0.0,34,0.00,,,0.00,VWS V14.01,2013-03-03 07:06:00,
2013-03-03 02:11:00,28.9,4.1,29.15,North,1,0.0,0.0,34,0.00,,,0.00,VWS V14.01,2013-03-03 07:11:00,
2013-03-03 02:16:00,28.9,4.1,29.15,North,353,0.0,0.0,34,0.00,,,0.00,VWS V14.01,2013-03-03 07:16:00,
2013-03-03 02:21:00,28.8,3.9,29.15,North,2,0.0,0.0,34,0.00,,,0.00,VWS V14.01,2013-03-03 07:21:00,
2013-03-03 02:26:00,28.9,4.1,29.15,North,9,0.0,0.0,34,0.00,,,0.00,VWS V14.01,2013-03-03 07:26:00,
2013-03-03 02:31:00,28.9,4.1,29.15,NNE,29,0.0,0.0,34,0.00,,,0.00,VWS V14.01,2013-03-03 07:31:00,
2013-03-03 02:36:00,29.1,4.3,29.15,North,357,0.0,0.0,34,0.00,,,0.00,VWS V14.01,2013-03-03 07:36:00,
2013-03-03 02:41:00,29.1,4.3,29.15,North,353,2.2,2.2,34,0.00,,,0.00,VWS V14.01,2013-03-03 07:41:00,
2013-03-03 02:46:00,29.1,4.3,29.15,North,1,0.0,0.0,34,0.00,,,0.00,VWS V14.01,2013-03-03 07:46:00,
2013-03-03 02:51:00,29.1,4.3,29.15,NNW,342,0.0,0.0,34,0.00,,,0.00,VWS V14.01,2013-03-03 07:51:00,
2013-03-03 02:56:00,29.1,4.3,29.15,North,10,2.7,2.7,34,0.00,,,0.00,VWS V14.01,2013-03-03 07:56:00,
2013-03-03 03:01:00,29.1,4.3,29.15,NNW,338,0.0,0.0,34,0.00,,,0.00,VWS V14.01,2013-03-03 08:01:00,
2013-03-03 03:06:00,29.1,4.3,29.15,NNW,342,3.1,3.1,34,0.00,,,0.00,VWS V14.01,2013-03-03 08:06:00,
2013-03-03 03:11:00,29.1,4.3,29.15,North,0,0.0,2.7,34,0.00,,,0.00,VWS V14.01,2013-03-03 08:11:00,
2013-03-03 03:16:00,29.1,4.3,29.15,NNE,18,0.0,3.1,34,0.00,,,0.00,VWS V14.01,2013-03-03 08:16:00,
2013-03-03 03:21:00,29.1,4.3,29.15,NNE,30,0.0,2.2,34,0.00,,,0.00,VWS V14.01,2013-03-03 08:21:00,
2013-03-03 03:26:00,29.1,4.3,29.15,NNE,30,0.0,0.0,34,0.00,,,0.00,VWS V14.01,2013-03-03 08:26:00,
2013-03-03 03:31:00,30.2,5.2,29.15,North,0,0.0,0.0,34,0.00,,,0.00,VWS V14.01,2013-03-03 08:31:00,
2013-03-03 03:36:00,30.2,5.2,29.15,NE,39,0.0,0.0,34,0.00,,,0.00,VWS V14.01,2013-03-03 08:36:00,
2013-03-03 03:41:00,30.4,5.4,29.15,NW,310,2.7,2.7,34,0.00,,,0.00,VWS V14.01,2013-03-03 08:41:00,
2013-03-03 03:46:00,30.4,5.4,29.15,NE,35,0.0,3.6,34,0.00,,,0.00,VWS V14.01,2013-03-03 08:46:00,
2013-03-03 03:51:00,30.4,5.4,29.15,NNE,16,0.0,2.2,34,0.00,,,0.00,VWS V14.01,2013-03-03 08:51:00,
2013-03-03 03:56:00,30.4,5.4,29.15,North,2,0.0,0.0,34,0.00,,,0.00,VWS V14.01,2013-03-03 08:56:00,
2013-03-03 04:01:00,30.4,5.4,29.15,North,353,3.6,3.6,34,0.00,,,0.00,VWS V14.01,2013-03-03 09:01:00,
2013-03-03 04:06:00,30.4,5.4,29.15,NNE,18,0.0,0.0,34,0.00,,,0.00,VWS V14.01,2013-03-03 09:06:00,
2013-03-03 04:11:00,30.4,6.0,29.15,North,4,0.0,0.0,35,0.00,,,0.00,VWS V14.01,2013-03-03 09:11:00,
2013-03-03 04:16:00,30.4,6.0,29.15,NNE,23,0.0,0.0,35,0.00,,,0.00,VWS V14.01,2013-03-03 09:16:00,
2013-03-03 04:21:00,30.4,6.0,29.15,NNE,20,0.0,0.0,35,0.00,,,0.00,VWS V14.01,2013-03-03 09:21:00,
2013-03-03 04:26:00,30.4,6.0,29.15,NW,310,3.1,5.4,35,0.00,,,0.00,VWS V14.01,2013-03-03 09:26:00,
2013-03-03 04:31:00,30.4,6.0,29.15,NW,318,4.0,4.0,35,0.00,,,0.00,VWS V14.01,2013-03-03 09:31:00,
2013-03-03 04:36:00,30.4,6.0,29.15,North,357,3.6,5.4,35,0.00,,,0.00,VWS V14.01,2013-03-03 09:36:00,
2013-03-03 04:41:00,30.4,6.0,29.15,North,357,2.7,3.1,35,0.00,,,0.00,VWS V14.01,2013-03-03 09:41:00,
2013-03-03 04:46:00,30.4,6.0,29.15,North,2,0.0,2.7,35,0.00,,,0.00,VWS V14.01,2013-03-03 09:46:00,
2013-03-03 04:51:00,30.4,6.6,29.15,NE,37,2.2,2.2,36,0.00,,,0.00,VWS V14.01,2013-03-03 09:51:00,
2013-03-03 04:56:00,30.4,6.6,29.15,NNW,330,2.7,5.8,36,0.00,,,0.00,VWS V14.01,2013-03-03 09:56:00,
2013-03-03 05:01:00,30.4,6.0,29.15,North,8,0.0,2.7,35,0.00,,,0.00,VWS V14.01,2013-03-03 10:01:00,
2013-03-03 05:06:00,30.4,6.6,29.15,North,350,0.0,3.6,36,0.00,,,0.00,VWS V14.01,2013-03-03 10:06:00,
2013-03-03 05:11:00,30.4,6.6,29.15,North,0,2.7,2.7,36,0.00,,,0.00,VWS V14.01,2013-03-03 10:11:00,
2013-03-03 05:16:00,30.4,6.0,29.15,NE,51,0.0,2.2,35,0.00,,,0.00,VWS V14.01,2013-03-03 10:16:00,
2013-03-03 05:21:00,30.6,6.2,29.15,North,353,0.0,0.0,35,0.00,,,0.00,VWS V14.01,2013-03-03 10:21:00,
2013-03-03 05:26:00,30.6,6.2,29.15,North,3,0.0,0.0,35,0.00,,,0.00,VWS V14.01,2013-03-03 10:26:00,
2013-03-03 05:31:00,30.4,6.0,29.15,WNW,297,5.8,5.8,35,0.00,,,0.00,VWS V14.01,2013-03-03 10:31:00,
2013-03-03 05:36:00,30.6,6.2,29.15,SSW,196,0.0,3.6,35,0.00,,,0.00,VWS V14.01,2013-03-03 10:36:00,
2013-03-03 05:41:00,30.6,6.2,29.15,West,269,2.2,2.2,35,0.00,,,0.00,VWS V14.01,2013-03-03 10:41:00,
2013-03-03 05:46:00,30.6,6.2,29.15,ENE,58,0.0,2.2,35,0.00,,,0.00,VWS V14.01,2013-03-03 10:46:00,
2013-03-03 05:51:00,30.6,6.2,29.15,NNE,21,4.0,4.0,35,0.00,,,0.00,VWS V14.01,2013-03-03 10:51:00,
2013-03-03 05:56:00,30.6,6.2,29.15,NW,322,3.1,3.6,35,0.00,,,0.00,VWS V14.01,2013-03-03 10:56:00,
2013-03-03 06:01:00,30.6,6.2,29.15,NNW,333,3.6,3.6,35,0.00,,,0.00,VWS V14.01,2013-03-03 11:01:00,
2013-03-03 06:06:00,30.6,6.2,29.15,WNW,291,3.6,6.3,35,0.00,,,0.00,VWS V14.01,2013-03-03 11:06:00,
2013-03-03 06:11:00,30.6,5.5,29.15,NW,320,0.0,4.9,34,0.00,,,0.00,VWS V14.01,2013-03-03 11:11:00,
2013-03-03 06:16:00,30.6,5.5,29.15,North,353,2.2,3.1,34,0.00,,,0.00,VWS V14.01,2013-03-03 11:16:00,
2013-03-03 06:21:00,30.6,5.5,29.15,NE,40,0.0,2.2,34,0.00,,,0.00,VWS V14.01,2013-03-03 11:21:00,
2013-03-03 06:26:00,30.6,5.5,29.15,NE,42,0.0,0.0,34,0.00,,,0.00,VWS V14.01,2013-03-03 11:26:00,
2013-03-03 06:31:00,30.6,5.5,29.15,NE,46,0.0,0.0,34,0.00,,,0.00,VWS V14.01,2013-03-03 11:31:00,
2013-03-03 06:36:00,30.6,5.5,29.15,NNW,344,0.0,0.0,34,0.00,,,0.00,VWS V14.01,2013-03-03 11:36:00,
2013-03-03 06:41:00,30.6,5.5,29.15,NE,43,0.0,4.9,34,0.00,,,0.00,VWS V14.01,2013-03-03 11:41:00,
2013-03-03 06:46:00,30.6,5.5,29.15,NNE,25,0.0,0.0,34,0.00,,,0.00,VWS V14.01,2013-03-03 11:46:00,
2013-03-03 06:51:00,30.6,5.5,29.15,NNW,345,0.0,3.1,34,0.00,,,0.00,VWS V14.01,2013-03-03 11:51:00,
2013-03-03 06:57:00,30.6,5.5,29.15,North,349,0.0,0.0,34,0.00,,,0.00,VWS V14.01,2013-03-03 11:57:00,
2013-03-03 07:01:00,30.2,5.9,29.15,North,357,0.0,2.2,35,0.00,,,0.00,VWS V14.01,2013-03-03 12:01:00,
2013-03-03 07:06:00,30.2,5.9,29.15,NNE,21,0.0,2.7,35,0.00,,,0.00,VWS V14.01,2013-03-03 12:06:00,
2013-03-03 07:12:00,30.0,5.1,29.15,NNE,22,0.0,2.7,34,0.00,,,0.00,VWS V14.01,2013-03-03 12:12:00,
2013-03-03 07:17:00,30.0,5.1,29.15,North,11,0.0,4.5,34,0.00,,,0.00,VWS V14.01,2013-03-03 12:17:00,
2013-03-03 07:22:00,30.2,3.9,29.15,East,85,0.0,4.0,32,0.00,,,0.00,VWS V14.01,2013-03-03 12:22:00,
2013-03-03 07:27:00,30.4,3.4,29.15,North,11,3.1,5.4,31,0.00,,,0.00,VWS V14.01,2013-03-03 12:27:00,
2013-03-03 07:32:00,30.6,3.5,29.15,North,0,3.1,5.8,31,0.00,,,0.00,VWS V14.01,2013-03-03 12:32:00,
2013-03-03 07:37:00,30.7,3.7,29.15,North,357,3.6,3.6,31,0.00,,,0.00,VWS V14.01,2013-03-03 12:37:00,
2013-03-03 07:42:00,30.7,3.7,29.15,NNW,341,2.2,3.6,31,0.00,,,0.00,VWS V14.01,2013-03-03 12:42:00,
2013-03-03 07:47:00,30.7,3.7,29.15,North,4,3.6,3.6,31,0.00,,,0.00,VWS V14.01,2013-03-03 12:47:00,
2013-03-03 07:52:00,30.7,3.7,29.15,NNE,21,0.0,3.1,31,0.00,,,0.00,VWS V14.01,2013-03-03 12:52:00,
2013-03-03 07:57:00,30.9,3.8,29.15,NE,47,2.2,2.7,31,0.00,,,0.00,VWS V14.01,2013-03-03 12:57:00,
2013-03-03 08:02:00,30.9,3.8,29.18,NNE,15,0.0,2.2,31,0.00,,,0.00,VWS V14.01,2013-03-03 13:02:00,
2013-03-03 08:07:00,31.1,4.0,29.18,North,357,3.1,5.4,31,0.00,,,0.00,VWS V14.01,2013-03-03 13:07:00,
2013-03-03 08:12:00,31.3,4.2,29.18,North,0,2.7,2.7,31,0.00,,,0.00,VWS V14.01,2013-03-03 13:12:00,
2013-03-03 08:17:00,31.6,4.5,29.18,North,10,0.0,0.0,31,0.00,,,0.00,VWS V14.01,2013-03-03 13:17:00,
2013-03-03 08:22:00,31.8,4.6,29.18,NNW,340,3.6,4.9,31,0.00,,,0.00,VWS V14.01,2013-03-03 13:22:00,
2013-03-03 08:27:00,31.8,4.6,29.18,North,5,2.2,5.8,31,0.00,,,0.00,VWS V14.01,2013-03-03 13:27:00,
2013-03-03 08:32:00,31.6,5.2,29.18,NW,315,8.1,8.3,32,0.00,,,0.00,VWS V14.01,2013-03-03 13:32:00,
2013-03-03 08:37:00,32.0,5.5,29.18,NNW,335,0.0,4.9,32,0.00,,,0.00,VWS V14.01,2013-03-03 13:37:00,
2013-03-03 08:42:00,32.0,4.8,29.18,East,99,2.2,3.6,31,0.00,,,0.00,VWS V14.01,2013-03-03 13:42:00,
2013-03-03 08:47:00,32.0,4.8,29.18,East,96,0.0,3.1,31,0.00,,,0.00,VWS V14.01,2013-03-03 13:47:00,
2013-03-03 08:52:00,32.0,4.8,29.18,NNW,327,2.7,2.7,31,0.00,,,0.00,VWS V14.01,2013-03-03 13:52:00,
2013-03-03 08:57:00,32.0,4.8,29.18,North,349,2.7,2.7,31,0.00,,,0.00,VWS V14.01,2013-03-03 13:57:00,
2013-03-03 09:02:00,32.0,4.8,29.18,NNE,23,2.7,5.4,31,0.00,,,0.00,VWS V14.01,2013-03-03 14:02:00,
2013-03-03 09:07:00,32.0,4.8,29.18,North,6,2.7,4.9,31,0.00,,,0.00,VWS V14.01,2013-03-03 14:07:00,
2013-03-03 09:12:00,32.0,4.8,29.18,NW,308,3.6,4.9,31,0.00,,,0.00,VWS V14.01,2013-03-03 14:12:00,
2013-03-03 09:17:00,33.6,5.5,29.18,NNW,332,3.6,4.0,30,0.00,,,0.00,VWS V14.01,2013-03-03 14:17:00,
2013-03-03 09:22:00,33.8,5.7,29.18,NNE,15,3.1,3.1,30,0.00,,,0.00,VWS V14.01,2013-03-03 14:22:00,
2013-03-03 09:27:00,33.6,5.5,29.18,ESE,102,3.1,3.1,30,0.00,,,0.00,VWS V14.01,2013-03-03 14:27:00,
2013-03-03 09:32:00,33.4,5.3,29.18,North,3,0.0,0.0,30,0.00,,,0.00,VWS V14.01,2013-03-03 14:32:00,
2013-03-03 09:37:00,33.1,5.0,29.18,NE,38,3.6,4.5,30,0.00,,,0.00,VWS V14.01,2013-03-03 14:37:00,
2013-03-03 09:42:00,33.1,5.0,29.18,NE,47,3.1,3.1,30,0.00,,,0.00,VWS V14.01,2013-03-03 14:42:00,
2013-03-03 09:47:00,33.4,5.3,29.18,NE,36,2.7,3.1,30,0.00,,,0.00,VWS V14.01,2013-03-03 14:47:00,
2013-03-03 09:52:00,33.6,5.5,29.18,NE,53,4.0,4.0,30,0.00,,,0.00,VWS V14.01,2013-03-03 14:52:00,
2013-03-03 09:57:00,33.6,4.0,29.18,North,357,2.2,2.2,28,0.00,,,0.00,VWS V14.01,2013-03-03 14:57:00,
2013-03-03 10:02:00,33.6,4.0,29.18,North,353,4.9,4.9,28,0.00,,,0.00,VWS V14.01,2013-03-03 15:02:00,
2013-03-03 10:07:00,34.0,3.5,29.18,NNE,29,2.7,3.1,27,0.00,,,0.00,VWS V14.01,2013-03-03 15:07:00,
2013-03-03 10:12:00,34.7,4.2,29.18,NNW,336,8.3,8.3,27,0.00,,,0.00,VWS V14.01,2013-03-03 15:12:00,
2013-03-03 10:17:00,34.9,4.3,29.18,NNW,337,3.1,4.9,27,0.00,,,0.00,VWS V14.01,2013-03-03 15:17:00,
2013-03-03 10:22:00,35.8,5.1,29.18,WNW,288,8.3,8.3,27,0.00,,,0.00,VWS V14.01,2013-03-03 15:22:00,
2013-03-03 10:27:00,36.0,5.2,29.18,West,267,2.7,3.6,27,0.00,,,0.00,VWS V14.01,2013-03-03 15:27:00,
2013-03-03 10:32:00,35.1,4.5,29.18,ENE,77,2.7,8.1,27,0.00,,,0.00,VWS V14.01,2013-03-03 15:32:00,
2013-03-03 10:37:00,34.3,2.2,29.18,North,11,3.1,3.6,25,0.00,,,0.00,VWS V14.01,2013-03-03 15:37:00,
2013-03-03 10:42:00,35.2,4.6,29.18,WSW,258,3.6,4.0,27,0.00,,,0.00,VWS V14.01,2013-03-03 15:42:00,
2013-03-03 10:47:00,35.1,4.5,29.15,North,1,3.6,4.0,27,0.00,,,0.00,VWS V14.01,2013-03-03 15:47:00,
2013-03-03 10:52:00,34.5,4.0,29.15,West,279,7.6,7.6,27,0.00,,,0.00,VWS V14.01,2013-03-03 15:52:00,
2013-03-03 10:57:00,34.2,3.7,29.15,NE,43,2.7,2.7,27,0.00,,,0.00,VWS V14.01,2013-03-03 15:57:00,
2013-03-03 11:02:00,34.5,4.0,29.15,NE,35,5.4,7.6,27,0.00,,,0.00,VWS V14.01,2013-03-03 16:02:00,
2013-03-03 11:07:00,34.3,3.8,29.15,West,279,5.8,5.8,27,0.00,,,0.00,VWS V14.01,2013-03-03 16:07:00,
2013-03-03 11:12:00,34.0,3.5,29.15,WNW,301,3.1,4.0,27,0.00,,,0.00,VWS V14.01,2013-03-03 16:12:00,
2013-03-03 11:17:00,34.2,3.7,29.15,WNW,299,2.7,2.7,27,0.00,,,0.00,VWS V14.01,2013-03-03 16:17:00,
2013-03-03 11:22:00,34.3,3.8,29.15,NNE,18,10.5,10.5,27,0.00,,,0.00,VWS V14.01,2013-03-03 16:22:00,
2013-03-03 11:27:00,34.5,4.0,29.15,ENE,58,2.2,4.9,27,0.00,,,0.00,VWS V14.01,2013-03-03 16:27:00,
2013-03-03 11:32:00,34.5,4.0,29.15,NNW,346,0.0,0.0,27,0.00,,,0.00,VWS V14.01,2013-03-03 16:32:00,
2013-03-03 11:37:00,35.2,4.6,29.15,North,353,3.6,8.1,27,0.00,,,0.00,VWS V14.01,2013-03-03 16:37:00,
2013-03-03 11:42:00,35.1,4.5,29.15,WNW,294,8.3,8.3,27,0.00,,,0.00,VWS V14.01,2013-03-03 16:42:00,
2013-03-03 11:47:00,35.1,4.5,29.15,NNE,16,3.1,4.0,27,0.00,,,0.00,VWS V14.01,2013-03-03 16:47:00,
2013-03-03 11:52:00,34.9,4.3,29.15,WNW,303,2.7,4.0,27,0.00,,,0.00,VWS V14.01,2013-03-03 16:52:00,
2013-03-03 11:57:00,35.4,4.8,29.15,NNW,339,6.3,7.2,27,0.00,,,0.00,VWS V14.01,2013-03-03 16:57:00,
2013-03-03 12:02:00,35.2,3.0,29.15,NE,41,3.1,3.6,25,0.00,,,0.00,VWS V14.01,2013-03-03 17:02:00,
2013-03-03 12:07:00,34.9,2.6,29.15,NW,316,5.4,8.3,25,0.00,,,0.00,VWS V14.01,2013-03-03 17:07:00,
2013-03-03 12:12:00,34.9,2.6,29.15,North,8,0.0,5.8,25,0.00,,,0.00,VWS V14.01,2013-03-03 17:12:00,
2013-03-03 12:17:00,35.4,3.1,29.15,NE,37,5.8,5.8,25,0.00,,,0.00,VWS V14.01,2013-03-03 17:17:00,
2013-03-03 12:22:00,36.5,5.7,29.15,NE,43,3.1,4.0,27,0.00,,,0.00,VWS V14.01,2013-03-03 17:22:00,
2013-03-03 12:27:00,36.7,3.3,29.15,North,353,3.1,3.1,24,0.00,,,0.00,VWS V14.01,2013-03-03 17:27:00,
2013-03-03 12:32:00,36.1,2.8,29.15,NE,51,3.1,3.6,24,0.00,,,0.00,VWS V14.01,2013-03-03 17:32:00,
2013-03-03 12:37:00,36.3,3.0,29.15,North,0,3.1,3.6,24,0.00,,,0.00,VWS V14.01,2013-03-03 17:37:00,
2013-03-03 12:42:00,36.7,3.3,29.15,NNE,29,3.1,8.1,24,0.00,,,0.00,VWS V14.01,2013-03-03 17:42:00,
2013-03-03 12:47:00,36.5,3.2,29.15,North,353,8.1,9.6,24,0.00,,,0.00,VWS V14.01,2013-03-03 17:47:00,
2013-03-03 12:52:00,36.7,3.3,29.15,WNW,294,3.1,3.1,24,0.00,,,0.00,VWS V14.01,2013-03-03 17:52:00,
2013-03-03 12:57:00,36.0,2.7,29.15,NNE,12,3.1,3.1,24,0.00,,,0.00,VWS V14.01,2013-03-03 17:57:00,
2013-03-03 13:02:00,35.8,2.5,29.15,West,268,3.6,6.3,24,0.00,,,0.00,VWS V14.01,2013-03-03 18:02:00,
2013-03-03 13:07:00,36.3,3.0,29.15,NNW,343,10.1,10.5,24,0.00,,,0.00,VWS V14.01,2013-03-03 18:07:00,
2013-03-03 13:12:00,37.0,3.6,29.15,East,87,4.0,15.4,24,0.00,,,0.00,VWS V14.01,2013-03-03 18:12:00,
2013-03-03 13:17:00,36.1,2.8,29.15,North,357,2.7,4.0,24,0.00,,,0.00,VWS V14.01,2013-03-03 18:17:00,
2013-03-03 13:22:00,35.8,2.5,29.15,NE,35,0.0,3.6,24,0.00,,,0.00,VWS V14.01,2013-03-03 18:22:00,
2013-03-03 13:27:00,36.1,2.8,29.15,NW,310,3.6,4.9,24,0.00,,,0.00,VWS V14.01,2013-03-03 18:27:00,
2013-03-03 13:32:00,36.7,3.3,29.12,NNE,14,4.9,4.9,24,0.00,,,0.00,VWS V14.01,2013-03-03 18:32:00,
2013-03-03 13:37:00,36.1,2.8,29.12,North,0,6.7,7.6,24,0.00,,,0.00,VWS V14.01,2013-03-03 18:37:00,
2013-03-03 13:42:00,37.0,3.6,29.12,NNE,31,5.8,8.1,24,0.00,,,0.00,VWS V14.01,2013-03-03 18:42:00,
2013-03-03 13:47:00,36.9,3.5,29.12,NNW,339,3.1,3.6,24,0.00,,,0.00,VWS V14.01,2013-03-03 18:47:00,
2013-03-03 13:52:00,36.9,3.5,29.12,NNW,337,8.1,8.1,24,0.00,,,0.00,VWS V14.01,2013-03-03 18:52:00,
2013-03-03 13:57:00,36.5,3.2,29.12,NNW,327,2.7,8.3,24,0.00,,,0.00,VWS V14.01,2013-03-03 18:57:00,
2013-03-03 14:02:00,36.3,3.0,29.12,NNW,328,2.2,7.2,24,0.00,,,0.00,VWS V14.01,2013-03-03 19:02:00,
2013-03-03 14:08:00,36.1,2.8,29.12,NW,314,10.5,10.5,24,0.00,,,0.00,VWS V14.01,2013-03-03 19:08:00,
2013-03-03 14:13:00,36.5,3.2,29.12,NW,319,5.8,6.3,24,0.00,,,0.00,VWS V14.01,2013-03-03 19:13:00,
2013-03-03 14:18:00,36.3,3.0,29.12,SW,227,2.7,8.1,24,0.00,,,0.00,VWS V14.01,2013-03-03 19:18:00,
2013-03-03 14:23:00,35.8,2.5,29.12,WNW,288,6.7,6.7,24,0.00,,,0.00,VWS V14.01,2013-03-03 19:23:00,
2013-03-03 14:28:00,36.1,2.8,29.12,NNW,340,3.1,3.6,24,0.00,,,0.00,VWS V14.01,2013-03-03 19:28:00,
2013-03-03 14:33:00,36.7,3.3,29.12,West,275,10.5,10.5,24,0.00,,,0.00,VWS V14.01,2013-03-03 19:33:00,
2013-03-03 14:38:00,36.1,2.8,29.12,ENE,75,5.8,11.0,24,0.00,,,0.00,VWS V14.01,2013-03-03 19:38:00,
2013-03-03 14:43:00,35.6,2.4,29.12,NE,38,3.6,3.6,24,0.00,,,0.00,VWS V14.01,2013-03-03 19:43:00,
2013-03-03 14:48:00,35.6,2.4,29.12,North,11,2.7,5.4,24,0.00,,,0.00,VWS V14.01,2013-03-03 19:48:00,
2013-03-03 14:53:00,35.1,2.8,29.12,NNW,341,10.1,12.8,25,0.00,,,0.00,VWS V14.01,2013-03-03 19:53:00,
2013-03-03 14:58:00,35.2,3.0,29.12,NW,309,5.8,7.6,25,0.00,,,0.00,VWS V14.01,2013-03-03 19:58:00,
2013-03-03 15:03:00,35.4,3.1,29.12,NE,35,8.3,8.3,25,0.00,,,0.00,VWS V14.01,2013-03-03 20:03:00,
2013-03-03 15:08:00,35.8,2.5,29.12,NNE,18,3.6,11.9,24,0.00,,,0.00,VWS V14.01,2013-03-03 20:08:00,
2013-03-03 15:13:00,35.6,2.4,29.12,WNW,300,0.0,3.1,24,0.00,,,0.00,VWS V14.01,2013-03-03 20:13:00,
2013-03-03 15:18:00,35.6,2.4,29.12,NE,51,3.1,12.8,24,0.00,,,0.00,VWS V14.01,2013-03-03 20:18:00,
2013-03-03 15:23:00,36.1,2.8,29.12,SE,128,2.2,6.3,24,0.00,,,0.00,VWS V14.01,2013-03-03 20:23:00,
2013-03-03 15:28:00,36.3,3.0,29.12,WNW,299,8.1,11.9,24,0.00,,,0.00,VWS V14.01,2013-03-03 20:28:00,
2013-03-03 15:33:00,36.1,2.8,29.12,North,4,3.1,5.8,24,0.00,,,0.00,VWS V14.01,2013-03-03 20:33:00,
2013-03-03 15:38:00,36.0,2.7,29.12,WSW,258,6.3,6.3,24,0.00,,,0.00,VWS V14.01,2013-03-03 20:38:00,
2013-03-03 15:43:00,36.0,2.7,29.12,WNW,301,3.6,5.8,24,0.00,,,0.00,VWS V14.01,2013-03-03 20:43:00,
2013-03-03 15:48:00,36.1,2.8,29.12,NE,41,2.2,7.6,24,0.00,,,0.00,VWS V14.01,2013-03-03 20:48:00,
2013-03-03 15:53:00,35.8,2.5,29.12,NE,54,2.2,2.2,24,0.00,,,0.00,VWS V14.01,2013-03-03 20:53:00,
2013-03-03 15:58:00,36.0,2.7,29.12,North,357,3.6,3.6,24,0.00,,,0.00,VWS V14.01,2013-03-03 20:58:00,
2013-03-03 16:03:00,35.4,3.1,29.12,North,0,3.6,6.7,25,0.00,,,0.00,VWS V14.01,2013-03-03 21:03:00,
2013-03-03 16:08:00,35.4,3.1,29.12,NNW,335,4.9,8.1,25,0.00,,,0.00,VWS V14.01,2013-03-03 21:08:00,
2013-03-03 16:13:00,35.6,2.4,29.12,NE,38,5.4,5.4,24,0.00,,,0.00,VWS V14.01,2013-03-03 21:13:00,
2013-03-03 16:18:00,35.6,2.4,29.12,NNW,343,5.4,5.4,24,0.00,,,0.00,VWS V14.01,2013-03-03 21:18:00,
2013-03-03 16:23:00,35.6,2.4,29.12,North,2,2.7,13.2,24,0.00,,,0.00,VWS V14.01,2013-03-03 21:23:00,
2013-03-03 16:28:00,35.6,2.4,29.12,NE,45,3.6,3.6,24,0.00,,,0.00,VWS V14.01,2013-03-03 21:28:00,
2013-03-03 16:33:00,35.4,3.1,29.15,NNW,344,0.0,3.1,25,0.00,,,0.00,VWS V14.01,2013-03-03 21:33:00,
2013-03-03 16:38:00,35.4,3.1,29.15,NW,314,6.7,10.5,25,0.00,,,0.00,VWS V14.01,2013-03-03 21:38:00,
2013-03-03 16:43:00,35.2,3.0,29.15,NW,324,13.2,13.2,25,0.00,,,0.00,VWS V14.01,2013-03-03 21:43:00,
2013-03-03 16:48:00,35.1,2.8,29.15,North,353,3.1,3.1,25,0.00,,,0.00,VWS V14.01,2013-03-03 21:48:00,
2013-03-03 16:53:00,35.1,2.8,29.15,NNW,340,0.0,3.1,25,0.00,,,0.00,VWS V14.01,2013-03-03 21:53:00,
2013-03-03 16:58:00,34.9,2.6,29.15,NNE,15,3.1,3.1,25,0.00,,,0.00,VWS V14.01,2013-03-03 21:58:00,
2013-03-03 17:03:00,34.5,2.3,29.15,NW,314,3.1,3.1,25,0.00,,,0.00,VWS V14.01,2013-03-03 22:03:00,
2013-03-03 17:08:00,34.3,2.2,29.15,North,10,3.1,3.1,25,0.00,,,0.00,VWS V14.01,2013-03-03 22:08:00,
2013-03-03 17:13:00,34.0,1.9,29.15,ENE,60,3.1,4.0,25,0.00,,,0.00,VWS V14.01,2013-03-03 22:13:00,
2013-03-03 17:18:00,33.8,1.7,29.15,NNW,335,2.2,3.6,25,0.00,,,0.00,VWS V14.01,2013-03-03 22:18:00,
2013-03-03 17:23:00,33.8,1.7,29.15,North,7,8.3,8.3,25,0.00,,,0.00,VWS V14.01,2013-03-03 22:23:00,
2013-03-03 17:28:00,33.6,1.6,29.15,North,353,3.1,3.1,25,0.00,,,0.00,VWS V14.01,2013-03-03 22:28:00,
2013-03-03 17:33:00,33.6,1.6,29.15,NNE,12,3.1,6.3,25,0.00,,,0.00,VWS V14.01,2013-03-03 22:33:00,
2013-03-03 17:38:00,33.4,1.4,29.15,North,8,4.0,8.3,25,0.00,,,0.00,VWS V14.01,2013-03-03 22:38:00,
2013-03-03 17:43:00,33.4,3.8,29.15,NNW,340,3.6,3.6,28,0.00,,,0.00,VWS V14.01,2013-03-03 22:43:00,
2013-03-03 17:48:00,33.3,3.7,29.15,ENE,69,0.0,3.6,28,0.00,,,0.00,VWS V14.01,2013-03-03 22:48:00,
2013-03-03 17:53:00,33.3,3.7,29.15,NE,51,3.1,11.0,28,0.00,,,0.00,VWS V14.01,2013-03-03 22:53:00,
2013-03-03 17:58:00,33.1,3.5,29.15,NNW,330,7.2,7.2,28,0.00,,,0.00,VWS V14.01,2013-03-03 22:58:00,
2013-03-03 18:03:00,32.9,3.4,29.15,NE,50,2.2,7.2,28,0.00,,,0.00,VWS V14.01,2013-03-03 23:03:00,
2013-03-03 18:08:00,32.7,3.2,29.15,North,9,2.7,2.7,28,0.00,,,0.00,VWS V14.01,2013-03-03 23:08:00,
2013-03-03 18:13:00,32.7,3.2,29.15,NW,321,3.1,4.5,28,0.00,,,0.00,VWS V14.01,2013-03-03 23:13:00,
2013-03-03 18:18:00,32.7,3.2,29.18,North,357,0.0,2.2,28,0.00,,,0.00,VWS V14.01,2013-03-03 23:18:00,
2013-03-03 18:23:00,32.5,3.1,29.18,NNE,17,0.0,3.6,28,0.00,,,0.00,VWS V14.01,2013-03-03 23:23:00,
2013-03-03 18:28:00,32.5,3.1,29.18,North,353,0.0,0.0,28,0.00,,,0.00,VWS V14.01,2013-03-03 23:28:00,
2013-03-03 18:33:00,32.4,2.9,29.18,North,353,0.0,0.0,28,0.00,,,0.00,VWS V14.01,2013-03-03 23:33:00,
2013-03-03 18:38:00,32.2,2.8,29.18,NNW,337,2.7,3.6,28,0.00,,,0.00,VWS V14.01,2013-03-03 23:38:00,
2013-03-03 18:43:00,32.0,2.6,29.18,North,8,0.0,0.0,28,0.00,,,0.00,VWS V14.01,2013-03-03 23:43:00,
2013-03-03 18:48:00,32.0,2.6,29.18,NE,44,2.2,3.1,28,0.00,,,0.00,VWS V14.01,2013-03-03 23:48:00,
2013-03-03 18:53:00,31.8,2.4,29.18,North,353,2.7,3.6,28,0.00,,,0.00,VWS V14.01,2013-03-03 23:53:00,
2013-03-03 18:58:00,31.6,2.3,29.18,NNE,20,0.0,2.7,28,0.00,,,0.00,VWS V14.01,2013-03-03 23:58:00,
2013-03-03 19:03:00,31.6,2.3,29.18,North,3,2.7,2.7,28,0.00,,,0.00,VWS V14.01,2013-03-04 00:03:00,
2013-03-03 19:08:00,31.6,2.3,29.18,NNE,24,0.0,2.2,28,0.00,,,0.00,VWS V14.01,2013-03-04 00:08:00,
2013-03-03 19:13:00,31.5,3.6,29.18,North,0,0.0,3.1,30,0.00,,,0.00,VWS V14.01,2013-03-04 00:13:00,
2013-03-03 19:18:00,31.5,3.6,29.18,NE,55,0.0,6.7,30,0.00,,,0.00,VWS V14.01,2013-03-04 00:18:00,
2013-03-03 19:23:00,31.3,3.5,29.18,NNW,348,5.8,7.2,30,0.00,,,0.00,VWS V14.01,2013-03-04 00:23:00,
2013-03-03 19:28:00,31.3,3.5,29.18,North,357,0.0,0.0,30,0.00,,,0.00,VWS V14.01,2013-03-04 00:28:00,
2013-03-03 19:33:00,31.1,3.3,29.21,NNE,12,0.0,2.2,30,0.00,,,0.00,VWS V14.01,2013-03-04 00:33:00,
2013-03-03 19:38:00,31.1,3.3,29.21,NE,42,0.0,2.7,30,0.00,,,0.00,VWS V14.01,2013-03-04 00:38:00,
2013-03-03 19:43:00,31.1,3.3,29.21,NW,318,0.0,0.0,30,0.00,,,0.00,VWS V14.01,2013-03-04 00:43:00,
2013-03-03 19:48:00,31.1,3.3,29.21,North,10,0.0,0.0,30,0.00,,,0.00,VWS V14.01,2013-03-04 00:48:00,
2013-03-03 19:53:00,31.3,3.5,29.21,NNE,25,0.0,0.0,30,0.00,,,0.00,VWS V14.01,2013-03-04 00:53:00,
2013-03-03 19:58:00,31.5,3.6,29.21,North,5,0.0,0.0,30,0.00,,,0.00,VWS V14.01,2013-03-04 00:58:00,
2013-03-03 20:04:00,31.5,3.6,29.21,North,357,0.0,6.3,30,0.00,,,0.00,VWS V14.01,2013-03-04 01:04:00,
2013-03-03 20:09:00,31.5,3.6,29.21,NNW,329,0.0,3.1,30,0.00,,,0.00,VWS V14.01,2013-03-04 01:09:00,
2013-03-03 20:14:00,31.3,3.5,29.21,NNE,19,0.0,0.0,30,0.00,,,0.00,VWS V14.01,2013-03-04 01:14:00,
2013-03-03 20:19:00,31.1,3.3,29.21,North,353,0.0,0.0,30,0.00,,,0.00,VWS V14.01,2013-03-04 01:19:00,
2013-03-03 20:24:00,31.1,3.3,29.21,North,357,0.0,0.0,30,0.00,,,0.00,VWS V14.01,2013-03-04 01:24:00,
2013-03-03 20:29:00,31.1,3.3,29.21,NNW,348,0.0,0.0,30,0.00,,,0.00,VWS V14.01,2013-03-04 01:29:00,
2013-03-03 20:34:00,30.9,3.1,29.21,NNE,14,5.8,6.3,30,0.00,,,0.00,VWS V14.01,2013-03-04 01:34:00,
2013-03-03 20:39:00,30.9,3.1,29.21,NNW,346,3.1,3.1,30,0.00,,,0.00,VWS V14.01,2013-03-04 01:39:00,
2013-03-03 20:44:00,30.7,3.0,29.21,WNW,302,2.7,2.7,30,0.00,,,0.00,VWS V14.01,2013-03-04 01:44:00,
2013-03-03 20:49:00,30.6,2.8,29.21,NNE,25,3.1,3.6,30,0.00,,,0.00,VWS V14.01,2013-03-04 01:49:00,
2013-03-03 20:54:00,30.4,2.7,29.21,East,81,2.7,2.7,30,0.00,,,0.00,VWS V14.01,2013-03-04 01:54:00,
2013-03-03 20:59:00,30.4,2.7,29.21,NE,37,0.0,2.7,30,0.00,,,0.00,VWS V14.01,2013-03-04 01:59:00,
2013-03-03 21:04:00,30.2,2.5,29.21,NNE,28,3.6,7.6,30,0.00,,,0.00,VWS V14.01,2013-03-04 02:04:00,
2013-03-03 21:09:00,30.2,2.5,29.21,East,79,0.0,2.2,30,0.00,,,0.00,VWS V14.01,2013-03-04 02:09:00,
2013-03-03 21:14:00,30.2,2.5,29.21,North,353,3.1,3.1,30,0.00,,,0.00,VWS V14.01,2013-03-04 02:14:00,
2013-03-03 21:19:00,30.2,2.5,29.21,NNW,332,0.0,3.1,30,0.00,,,0.00,VWS V14.01,2013-03-04 02:19:00,
2013-03-03 21:24:00,30.2,2.5,29.21,NNW,341,2.2,5.4,30,0.00,,,0.00,VWS V14.01,2013-03-04 02:24:00,
2013-03-03 21:29:00,30.2,2.5,29.21,NNW,331,3.1,3.1,30,0.00,,,0.00,VWS V14.01,2013-03-04 02:29:00,
2013-03-03 21:34:00,30.0,2.3,29.21,North,11,4.9,4.9,30,0.00,,,0.00,VWS V14.01,2013-03-04 02:34:00,
2013-03-03 21:39:00,29.8,2.2,29.21,North,353,4.0,4.0,30,0.00,,,0.00,VWS V14.01,2013-03-04 02:39:00,
2013-03-03 21:44:00,29.7,2.0,29.21,NW,314,5.8,5.8,30,0.00,,,0.00,VWS V14.01,2013-03-04 02:44:00,
2013-03-03 21:49:00,29.7,2.0,29.21,NE,42,0.0,4.0,30,0.00,,,0.00,VWS V14.01,2013-03-04 02:49:00,
2013-03-03 21:54:00,29.5,1.9,29.21,NE,44,0.0,0.0,30,0.00,,,0.00,VWS V14.01,2013-03-04 02:54:00,
2013-03-03 21:59:00,29.5,1.9,29.21,NNE,25,4.9,4.9,30,0.00,,,0.00,VWS V14.01,2013-03-04 02:59:00,
2013-03-03 22:04:00,29.5,1.9,29.23,NW,313,3.1,3.1,30,0.00,,,0.00,VWS V14.01,2013-03-04 03:04:00,
2013-03-03 22:09:00,29.3,1.7,29.23,North,357,0.0,3.1,30,0.00,,,0.00,VWS V14.01,2013-03-04 03:09:00,
2013-03-03 22:14:00,29.3,1.7,29.23,NE,54,0.0,3.1,30,0.00,,,0.00,VWS V14.01,2013-03-04 03:14:00,
2013-03-03 22:19:00,29.1,1.6,29.23,NNW,329,4.9,4.9,30,0.00,,,0.00,VWS V14.01,2013-03-04 03:19:00,
2013-03-03 22:24:00,29.1,1.6,29.23,North,0,0.0,0.0,30,0.00,,,0.00,VWS V14.01,2013-03-04 03:24:00,
2013-03-03 22:29:00,29.1,1.6,29.23,NE,38,3.6,3.6,30,0.00,,,0.00,VWS V14.01,2013-03-04 03:29:00,
2013-03-03 22:34:00,29.1,1.6,29.23,ENE,58,0.0,0.0,30,0.00,,,0.00,VWS V14.01,2013-03-04 03:34:00,
2013-03-03 22:39:00,28.9,1.4,29.23,NNW,341,0.0,0.0,30,0.00,,,0.00,VWS V14.01,2013-03-04 03:39:00,
2013-03-03 22:44:00,28.8,1.2,29.23,NNE,22,3.6,3.6,30,0.00,,,0.00,VWS V14.01,2013-03-04 03:44:00,
2013-03-03 22:49:00,28.8,1.2,29.23,NW,318,4.0,6.7,30,0.00,,,0.00,VWS V14.01,2013-03-04 03:49:00,
2013-03-03 22:54:00,28.8,1.2,29.23,NNW,336,3.1,3.1,30,0.00,,,0.00,VWS V14.01,2013-03-04 03:54:00,
2013-03-03 22:59:00,28.8,1.2,29.23,North,349,6.3,6.3,30,0.00,,,0.00,VWS V14.01,2013-03-04 03:59:00,
2013-03-03 23:04:00,28.8,1.2,29.23,East,83,3.6,3.6,30,0.00,,,0.00,VWS V14.01,2013-03-04 04:04:00,
2013-03-03 23:09:00,28.8,1.2,29.23,NE,37,2.7,2.7,30,0.00,,,0.00,VWS V14.01,2013-03-04 04:09:00,
2013-03-03 23:14:00,28.8,1.2,29.23,NNW,333,2.2,2.2,30,0.00,,,0.00,VWS V14.01,2013-03-04 04:14:00,
2013-03-03 23:19:00,28.8,1.2,29.23,NNW,344,3.1,8.3,30,0.00,,,0.00,VWS V14.01,2013-03-04 04:19:00,
2013-03-03 23:24:00,28.8,1.2,29.23,ENE,64,3.1,3.1,30,0.00,,,0.00,VWS V14.01,2013-03-04 04:24:00,
2013-03-03 23:29:00,28.6,1.1,29.23,North,353,8.1,8.1,30,0.00,,,0.00,VWS V14.01,2013-03-04 04:29:00,
2013-03-03 23:34:00,28.6,1.1,29.23,NE,51,2.2,6.3,30,0.00,,,0.00,VWS V14.01,2013-03-04 04:34:00,
2013-03-03 23:39:00,28.6,1.1,29.23,West,280,6.3,6.3,30,0.00,,,0.00,VWS V14.01,2013-03-04 04:39:00,
2013-03-03 23:44:00,28.6,1.1,29.23,ENE,61,5.4,5.4,30,0.00,,,0.00,VWS V14.01,2013-03-04 04:44:00,
2013-03-03 23:49:00,28.4,1.6,29.23,NNW,335,3.6,5.4,31,0.00,,,0.00,VWS V14.01,2013-03-04 04:49:00,
2013-03-03 23:54:00,28.4,1.6,29.23,NNW,334,0.0,3.6,31,0.00,,,0.00,VWS V14.01,2013-03-04 04:54:00,
2013-03-03 23:59:00,28.4,1.6,29.23,NNE,13,4.9,4.9,31,0.00,,,0.00,VWS V14.01,2013-03-04 04:59:00,